createdAt,value
2019-01-16T00:01:20.202Z,2.00
2019-01-16T00:03:51.524Z,1.90
2019-01-16T00:06:28.770Z,1.90
2019-01-16T00:09:00.270Z,1.90
2019-01-16T00:11:31.502Z,1.90
2019-01-16T00:14:06.147Z,1.90
2019-01-16T00:16:43.076Z,1.80
2019-01-16T00:19:16.941Z,1.80
2019-01-16T00:22:04.361Z,1.70
2019-01-16T00:24:35.692Z,1.70
2019-01-16T00:27:07.202Z,1.70
2019-01-16T00:29:40.957Z,1.70
2019-01-16T00:32:17.844Z,1.70
2019-01-16T00:34:49.168Z,1.60
2019-01-16T00:37:26.265Z,1.60
2019-01-16T00:39:57.429Z,1.60
2019-01-16T00:42:31.173Z,1.60
2019-01-16T00:45:06.229Z,1.60
2019-01-16T00:47:37.392Z,1.60
2019-01-16T00:50:16.266Z,1.50
2019-01-16T00:53:03.479Z,1.50
2019-01-16T00:55:34.744Z,1.60
2019-01-16T00:58:11.950Z,1.60
2019-01-16T01:00:45.797Z,1.60
2019-01-16T01:03:17.234Z,1.60
2019-01-16T01:06:03.486Z,1.50
2019-01-16T01:08:34.726Z,1.50
2019-01-16T01:11:22.677Z,1.50
2019-01-16T01:13:54.314Z,1.40
2019-01-16T01:16:28.446Z,1.40
2019-01-16T01:19:14.454Z,1.40
2019-01-16T01:21:48.397Z,1.30
2019-01-16T01:24:22.134Z,1.30
2019-01-16T01:26:55.962Z,1.30
2019-01-16T01:29:27.504Z,1.30
2019-01-16T01:32:07.455Z,1.30
2019-01-16T01:34:55.034Z,1.30
2019-01-16T01:37:42.755Z,1.20
2019-01-16T01:40:14.371Z,1.20
2019-01-16T01:42:48.158Z,1.20
2019-01-16T01:45:35.289Z,1.20
2019-01-16T01:48:06.555Z,1.20
2019-01-16T01:50:37.809Z,1.20
2019-01-16T01:53:09.387Z,1.20
2019-01-16T01:55:46.533Z,1.10
2019-01-16T01:58:20.231Z,1.10
2019-01-16T02:01:00.468Z,1.10
2019-01-16T02:03:37.553Z,1.10
2019-01-16T02:06:17.478Z,1.10
2019-01-16T02:08:48.836Z,1.10
2019-01-16T02:11:38.335Z,1.10
2019-01-16T02:14:18.476Z,1.10
2019-01-16T02:16:49.724Z,1.10
2019-01-16T02:19:37.269Z,1.10
2019-01-16T02:22:18.105Z,1.10
2019-01-16T02:25:07.557Z,1.10
2019-01-16T02:27:38.750Z,1.20
2019-01-16T02:30:22.485Z,1.10
2019-01-16T02:33:09.813Z,1.20
2019-01-16T02:35:43.908Z,1.20
2019-01-16T02:38:15.625Z,1.10
2019-01-16T02:41:02.944Z,1.10
2019-01-16T02:43:40.242Z,1.10
2019-01-16T02:46:11.573Z,1.10
2019-01-16T02:48:42.766Z,1.10
2019-01-16T02:51:26.411Z,1.10
2019-01-16T02:53:57.717Z,1.00
2019-01-16T02:56:45.423Z,1.00
2019-01-16T02:59:16.683Z,1.00
2019-01-16T03:01:50.613Z,1.00
2019-01-16T03:04:24.489Z,1.00
2019-01-16T03:06:58.625Z,1.00
2019-01-16T03:09:41.972Z,1.00
2019-01-16T03:12:13.454Z,1.00
2019-01-16T03:15:00.894Z,1.00
2019-01-16T03:17:50.418Z,1.00
2019-01-16T03:20:24.407Z,1.00
2019-01-16T03:23:11.809Z,1.00
2019-01-16T03:25:49.236Z,1.00
2019-01-16T03:28:20.532Z,1.00
2019-01-16T03:30:51.863Z,1.00
2019-01-16T03:33:23.358Z,0.90
2019-01-16T03:36:01.136Z,0.90
2019-01-16T03:38:32.373Z,0.90
2019-01-16T03:41:20.068Z,0.90
2019-01-16T03:43:51.385Z,0.90
2019-01-16T03:46:28.515Z,0.90
2019-01-16T03:49:02.363Z,0.90
2019-01-16T03:51:48.558Z,0.90
2019-01-16T03:54:36.030Z,0.90
2019-01-16T03:57:09.980Z,0.90
2019-01-16T03:59:57.522Z,0.90
2019-01-16T04:02:47.040Z,0.90
2019-01-16T04:05:33.384Z,0.90
2019-01-16T04:08:10.442Z,0.80
2019-01-16T04:10:47.503Z,0.80
2019-01-16T04:13:33.777Z,0.80
2019-01-16T04:16:21.479Z,0.80
2019-01-16T04:19:07.780Z,0.80
2019-01-16T04:21:48.055Z,0.70
2019-01-16T04:24:25.419Z,0.70
2019-01-16T04:27:11.830Z,0.70
2019-01-16T04:29:42.988Z,0.70
2019-01-16T04:32:22.960Z,0.70
2019-01-16T04:35:09.454Z,0.70
2019-01-16T04:37:40.714Z,0.70
2019-01-16T04:40:14.486Z,0.70
2019-01-16T04:42:54.756Z,0.70
2019-01-16T04:45:25.978Z,0.70
2019-01-16T04:47:57.386Z,0.70
2019-01-16T04:50:28.698Z,0.70
2019-01-16T04:53:05.550Z,0.70
2019-01-16T04:55:52.930Z,0.60
2019-01-16T04:58:40.633Z,0.60
2019-01-16T05:01:24.031Z,0.60
2019-01-16T05:04:04.232Z,0.60
2019-01-16T05:06:44.254Z,0.60
2019-01-16T05:09:33.807Z,0.60
2019-01-16T05:12:21.938Z,0.60
2019-01-16T05:14:55.649Z,0.60
2019-01-16T05:17:38.978Z,0.60
2019-01-16T05:20:10.903Z,0.60
2019-01-16T05:22:53.685Z,0.60
2019-01-16T05:25:44.230Z,0.60
2019-01-16T05:28:24.394Z,0.60
2019-01-16T05:31:07.416Z,0.60
2019-01-16T05:33:50.401Z,0.60
2019-01-16T05:36:21.824Z,0.60
2019-01-16T05:39:08.221Z,0.60
2019-01-16T05:41:45.400Z,0.60
2019-01-16T05:44:25.540Z,0.50
2019-01-16T05:47:11.961Z,0.50
2019-01-16T05:49:48.937Z,0.50
2019-01-16T05:52:26.106Z,0.50
2019-01-16T05:55:03.353Z,0.50
2019-01-16T05:57:40.182Z,0.60
2019-01-16T06:00:14.565Z,0.50
2019-01-16T06:02:51.420Z,0.50
2019-01-16T06:05:31.597Z,0.50
2019-01-16T06:08:03.850Z,0.50
2019-01-16T06:10:50.068Z,0.50
2019-01-16T06:13:24.684Z,0.50
2019-01-16T06:16:02.022Z,0.50
2019-01-16T06:18:36.233Z,0.50
2019-01-16T06:21:13.568Z,0.50
2019-01-16T06:23:53.839Z,0.50
2019-01-16T06:26:25.070Z,0.50
2019-01-16T06:29:02.347Z,0.50
2019-01-16T06:31:48.559Z,0.60
2019-01-16T06:34:34.871Z,0.50
2019-01-16T06:37:24.653Z,0.60
2019-01-16T06:39:56.009Z,0.60
2019-01-16T06:42:30.006Z,0.60
2019-01-16T06:45:01.258Z,0.60
2019-01-16T06:47:32.628Z,0.70
2019-01-16T06:50:16.600Z,0.70
2019-01-16T06:52:48.257Z,0.80
2019-01-16T06:55:22.890Z,0.80
2019-01-16T06:58:05.878Z,0.90
2019-01-16T07:00:45.650Z,0.90
2019-01-16T07:03:28.535Z,0.90
2019-01-16T07:06:08.782Z,0.90
2019-01-16T07:08:56.013Z,1.40
2019-01-16T07:11:33.314Z,0.90
2019-01-16T07:14:04.903Z,0.90
2019-01-16T07:16:52.211Z,0.90
2019-01-16T07:19:29.585Z,1.00
2019-01-16T07:22:09.530Z,1.00
2019-01-16T07:24:46.877Z,1.00
2019-01-16T07:27:27.061Z,1.10
2019-01-16T07:30:13.000Z,1.10
2019-01-16T07:32:49.852Z,1.10
2019-01-16T07:35:30.310Z,1.20
2019-01-16T07:38:18.219Z,1.20
2019-01-16T07:40:54.984Z,1.30
2019-01-16T07:43:38.024Z,1.40
2019-01-16T07:46:12.356Z,1.50
2019-01-16T07:48:52.690Z,1.50
2019-01-16T07:51:40.217Z,1.60
2019-01-16T07:54:23.437Z,1.70
2019-01-16T07:57:12.769Z,1.80
2019-01-16T07:59:43.999Z,1.90
2019-01-16T08:02:21.217Z,2.00
2019-01-16T08:05:04.149Z,2.10
2019-01-16T08:07:51.953Z,2.20
2019-01-16T08:10:23.181Z,2.20
2019-01-16T08:13:03.817Z,2.30
2019-01-16T08:15:51.091Z,2.40
2019-01-16T08:18:22.350Z,2.40
2019-01-16T08:20:53.859Z,2.50
2019-01-16T08:23:27.875Z,2.70
2019-01-16T08:25:59.101Z,2.70
2019-01-16T08:28:36.295Z,2.80
2019-01-16T08:31:16.102Z,2.90
2019-01-16T08:33:47.385Z,3.00
2019-01-16T08:36:21.510Z,3.00
2019-01-16T08:39:08.803Z,3.00
2019-01-16T08:41:48.508Z,3.10
2019-01-16T08:44:39.072Z,3.20
2019-01-16T08:47:16.093Z,3.30
2019-01-16T08:49:50.282Z,3.40
2019-01-16T08:52:30.690Z,3.40
2019-01-16T08:55:04.817Z,3.50
2019-01-16T08:57:38.578Z,3.70
2019-01-16T09:00:29.460Z,3.80
2019-01-16T09:03:15.650Z,3.90
2019-01-16T09:05:46.933Z,4.00
2019-01-16T09:08:23.634Z,4.00
2019-01-16T09:10:55.034Z,4.00
2019-01-16T09:13:35.134Z,4.00
2019-01-16T09:16:11.957Z,4.00
2019-01-16T09:18:52.103Z,4.10
2019-01-16T09:21:26.285Z,4.10
2019-01-16T09:24:03.256Z,4.10
2019-01-16T09:26:40.374Z,4.20
2019-01-16T09:29:18.304Z,4.20
2019-01-16T09:31:55.278Z,4.20
2019-01-16T09:34:29.280Z,4.40
2019-01-16T09:37:12.441Z,4.50
2019-01-16T09:39:46.801Z,4.50
2019-01-16T09:42:26.973Z,4.50
2019-01-16T09:45:09.845Z,4.60
2019-01-16T09:47:56.009Z,4.50
2019-01-16T09:50:47.829Z,4.60
2019-01-16T09:53:18.113Z,4.70
2019-01-16T09:56:05.565Z,4.70
2019-01-16T09:58:53.246Z,4.80
2019-01-16T10:01:27.040Z,4.80
2019-01-16T10:04:13.142Z,4.80
2019-01-16T10:07:00.839Z,4.80
2019-01-16T10:09:38.428Z,4.70
2019-01-16T10:12:19.030Z,4.80
2019-01-16T10:15:05.371Z,4.90
2019-01-16T10:17:42.695Z,4.90
2019-01-16T10:20:30.538Z,4.80
2019-01-16T10:23:19.927Z,4.80
2019-01-16T10:25:51.194Z,4.90
2019-01-16T10:28:28.100Z,4.90
2019-01-16T10:31:04.984Z,4.90
2019-01-16T10:33:39.003Z,4.90
2019-01-16T10:36:12.721Z,5.00
2019-01-16T10:38:52.987Z,5.10
2019-01-16T10:41:42.490Z,5.10
2019-01-16T10:44:30.443Z,5.10
2019-01-16T10:47:04.369Z,5.20
2019-01-16T10:49:51.625Z,5.20
2019-01-16T10:52:23.138Z,5.30
2019-01-16T10:54:54.362Z,5.40
2019-01-16T10:57:26.903Z,5.30
2019-01-16T10:59:58.367Z,5.50
2019-01-16T11:02:32.053Z,5.50
2019-01-16T11:05:04.278Z,5.40
2019-01-16T11:07:35.588Z,5.50
2019-01-16T11:10:10.213Z,5.60
2019-01-16T11:12:41.465Z,5.50
2019-01-16T11:15:12.687Z,5.50
2019-01-16T11:17:53.286Z,5.60
2019-01-16T11:20:36.521Z,5.70
2019-01-16T11:23:08.063Z,5.70
2019-01-16T11:25:39.302Z,5.80
2019-01-16T11:28:10.556Z,5.80
2019-01-16T11:30:53.838Z,6.00
2019-01-16T11:33:25.182Z,6.10
2019-01-16T11:36:12.363Z,6.20
2019-01-16T11:38:52.475Z,6.30
2019-01-16T11:41:26.958Z,6.40
2019-01-16T11:43:58.394Z,6.50
2019-01-16T11:46:35.252Z,6.70
2019-01-16T11:49:06.497Z,6.70
2019-01-16T11:51:37.717Z,6.90
2019-01-16T11:54:24.131Z,7.20
2019-01-16T11:56:58.030Z,7.20
2019-01-16T11:59:32.108Z,7.40
2019-01-16T12:02:13.320Z,7.70
2019-01-16T12:04:50.089Z,7.70
2019-01-16T12:07:30.125Z,8.00
2019-01-16T12:10:16.245Z,8.20
2019-01-16T12:12:53.244Z,8.60
2019-01-16T12:15:46.538Z,9.10
2019-01-16T12:18:27.150Z,9.00
2019-01-16T12:21:03.901Z,9.00
2019-01-16T12:23:51.377Z,9.10
2019-01-16T12:26:40.610Z,9.00
2019-01-16T12:29:27.395Z,8.90
2019-01-16T12:32:01.282Z,8.80
2019-01-16T12:34:47.446Z,8.70
2019-01-16T12:37:18.770Z,8.50
2019-01-16T12:40:02.282Z,8.40
2019-01-16T12:42:51.741Z,8.30
2019-01-16T12:45:35.181Z,8.40
2019-01-16T12:48:06.472Z,8.50
2019-01-16T12:50:49.933Z,8.50
2019-01-16T12:53:33.551Z,8.50
2019-01-16T12:56:11.137Z,8.60
2019-01-16T12:58:58.758Z,8.90
2019-01-16T13:01:30.311Z,8.90
2019-01-16T13:04:04.163Z,9.00
2019-01-16T13:06:38.062Z,9.30
2019-01-16T13:09:28.302Z,9.40
2019-01-16T13:12:14.677Z,9.50
2019-01-16T13:14:51.803Z,9.50
2019-01-16T13:17:23.233Z,9.40
2019-01-16T13:19:54.619Z,9.50
2019-01-16T13:22:38.360Z,9.80
2019-01-16T13:25:21.590Z,10.20
2019-01-16T13:27:52.823Z,10.90
2019-01-16T13:30:24.467Z,11.70
2019-01-16T13:33:10.590Z,12.40
2019-01-16T13:35:41.862Z,13.00
2019-01-16T13:38:16.230Z,13.90
2019-01-16T13:40:59.286Z,14.90
2019-01-16T13:43:39.061Z,15.80
2019-01-16T13:46:10.439Z,16.40
2019-01-16T13:48:58.117Z,16.40
2019-01-16T13:51:29.425Z,16.20
2019-01-16T13:54:15.470Z,16.00
2019-01-16T13:56:46.738Z,15.90
2019-01-16T13:59:20.920Z,16.50
2019-01-16T14:01:57.986Z,17.10
2019-01-16T14:04:38.065Z,16.40
2019-01-16T14:07:09.465Z,17.40
2019-01-16T14:09:46.597Z,17.00
2019-01-16T14:12:20.365Z,16.40
2019-01-16T14:14:51.661Z,16.40
2019-01-16T14:17:39.384Z,16.50
2019-01-16T14:20:22.802Z,16.40
2019-01-16T14:23:10.825Z,15.50
2019-01-16T14:25:47.993Z,15.10
2019-01-16T14:28:31.650Z,14.90
2019-01-16T14:31:03.800Z,14.00
2019-01-16T14:33:35.407Z,14.10
2019-01-16T14:36:09.629Z,14.00
2019-01-16T14:38:46.501Z,13.80
2019-01-16T14:41:17.677Z,13.30
2019-01-16T14:43:49.279Z,12.90
2019-01-16T14:46:29.491Z,12.60
2019-01-16T14:49:00.753Z,12.70
2019-01-16T14:51:50.630Z,12.60
2019-01-16T14:54:29.973Z,12.60
2019-01-16T14:57:18.461Z,12.60
2019-01-16T14:59:49.893Z,12.50
2019-01-16T15:02:24.197Z,12.20
2019-01-16T15:04:58.054Z,12.00
2019-01-16T15:07:40.826Z,11.90
2019-01-16T15:10:21.494Z,11.80
2019-01-16T15:13:08.686Z,12.00
2019-01-16T15:15:42.641Z,11.90
2019-01-16T15:18:22.492Z,11.30
2019-01-16T15:21:05.890Z,10.70
2019-01-16T15:23:40.291Z,10.20
2019-01-16T15:26:11.535Z,9.80
2019-01-16T15:28:58.010Z,9.60
2019-01-16T15:31:47.348Z,9.20
2019-01-16T15:34:18.689Z,8.80
2019-01-16T15:36:50.049Z,8.50
2019-01-16T15:39:21.495Z,8.30
2019-01-16T15:41:52.870Z,8.10
2019-01-16T15:44:29.964Z,7.80
2019-01-16T15:47:03.898Z,7.70
2019-01-16T15:49:41.007Z,7.50
2019-01-16T15:52:27.550Z,7.40
2019-01-16T15:54:58.847Z,7.20
2019-01-16T15:57:36.337Z,7.10
2019-01-16T16:00:10.669Z,7.10
2019-01-16T16:02:46.743Z,6.90
2019-01-16T16:05:17.232Z,6.90
2019-01-16T16:08:03.310Z,6.80
2019-01-16T16:10:40.059Z,6.70
2019-01-16T16:13:11.555Z,6.70
2019-01-16T16:15:58.971Z,6.60
2019-01-16T16:18:36.109Z,6.60
2019-01-16T16:21:13.106Z,6.60
2019-01-16T16:23:59.210Z,6.50
2019-01-16T16:26:36.211Z,6.50
2019-01-16T16:29:13.125Z,6.40
2019-01-16T16:31:56.002Z,6.40
2019-01-16T16:34:36.245Z,6.30
2019-01-16T16:37:07.607Z,6.30
2019-01-16T16:39:38.770Z,6.30
2019-01-16T16:42:10.037Z,6.20
2019-01-16T16:44:41.416Z,6.20
2019-01-16T16:47:12.675Z,6.20
2019-01-16T16:49:46.309Z,6.20
2019-01-16T16:52:33.610Z,6.10
2019-01-16T16:55:13.759Z,6.10
2019-01-16T16:58:02.748Z,6.10
2019-01-16T17:00:34.019Z,6.10
2019-01-16T17:03:14.795Z,6.10
2019-01-16T17:05:54.679Z,6.00
2019-01-16T17:08:42.163Z,6.00
2019-01-16T17:11:30.155Z,6.00
2019-01-16T17:14:01.572Z,6.00
2019-01-16T17:16:35.544Z,6.00
2019-01-16T17:19:12.340Z,5.90
2019-01-16T17:21:43.599Z,5.90
2019-01-16T17:24:20.359Z,6.30
2019-01-16T17:27:00.406Z,5.80
2019-01-16T17:29:37.536Z,5.80
2019-01-16T17:32:08.857Z,5.80
2019-01-16T17:34:56.146Z,5.80
2019-01-16T17:37:30.303Z,5.80
2019-01-16T17:40:07.578Z,5.80
2019-01-16T17:42:54.163Z,5.80
2019-01-16T17:45:41.593Z,5.80
2019-01-16T17:48:28.859Z,5.80
2019-01-16T17:51:09.003Z,5.90
2019-01-16T17:53:40.534Z,5.90
2019-01-16T17:56:14.774Z,5.80
2019-01-16T17:58:45.926Z,5.80
2019-01-16T18:01:19.881Z,5.80
2019-01-16T18:03:59.970Z,6.00
2019-01-16T18:06:34.321Z,5.70
2019-01-16T18:09:18.707Z,5.70
2019-01-16T18:11:58.517Z,5.70
2019-01-16T18:14:41.655Z,5.60
2019-01-16T18:17:18.688Z,5.60
2019-01-16T18:19:49.906Z,5.60
2019-01-16T18:22:35.925Z,5.60
2019-01-16T18:25:09.655Z,5.60
2019-01-16T18:27:49.957Z,5.60
2019-01-16T18:30:37.183Z,5.50
2019-01-16T18:33:11.138Z,5.40
2019-01-16T18:35:51.510Z,5.40
2019-01-16T18:38:22.856Z,5.40
2019-01-16T18:40:54.148Z,5.40
2019-01-16T18:43:41.511Z,5.40
2019-01-16T18:46:12.788Z,5.30
2019-01-16T18:48:44.062Z,5.40
2019-01-16T18:51:15.290Z,5.40
2019-01-16T18:54:01.521Z,5.40
2019-01-16T18:56:35.503Z,5.40
2019-01-16T18:59:06.860Z,5.40
2019-01-16T19:01:38.102Z,4.90
2019-01-16T19:04:12.710Z,5.40
2019-01-16T19:06:43.947Z,5.30
2019-01-16T19:09:30.865Z,5.30
2019-01-16T19:12:17.881Z,5.30
2019-01-16T19:15:04.898Z,5.20
2019-01-16T19:17:36.116Z,5.20
2019-01-16T19:20:13.582Z,5.10
2019-01-16T19:22:44.810Z,5.10
2019-01-16T19:25:31.038Z,5.10
2019-01-16T19:28:02.267Z,5.10
2019-01-16T19:30:49.977Z,5.10
2019-01-16T19:33:27.214Z,5.10
2019-01-16T19:36:04.438Z,5.10
2019-01-16T19:38:44.643Z,5.00
2019-01-16T19:41:21.550Z,5.00
2019-01-16T19:43:58.618Z,5.00
2019-01-16T19:46:32.611Z,5.00
2019-01-16T19:49:07.767Z,5.00
2019-01-16T19:51:39.086Z,5.00
2019-01-16T19:54:16.495Z,5.00
2019-01-16T19:56:56.858Z,5.00
2019-01-16T19:59:28.108Z,5.00
2019-01-16T20:02:15.945Z,5.00
2019-01-16T20:05:05.263Z,5.00
2019-01-16T20:07:52.838Z,5.00
2019-01-16T20:10:35.939Z,4.90
2019-01-16T20:13:38.397Z,4.90
2019-01-16T20:16:12.342Z,4.90
2019-01-16T20:18:43.837Z,5.00
2019-01-16T20:21:17.810Z,4.90
2019-01-16T20:23:57.962Z,4.90
2019-01-16T20:26:29.269Z,4.90
2019-01-16T20:29:06.417Z,4.80
2019-01-16T20:31:53.840Z,4.80
2019-01-16T20:34:25.173Z,4.70
2019-01-16T20:36:56.823Z,4.70
2019-01-16T20:39:44.353Z,4.70
2019-01-16T20:42:15.969Z,4.70
2019-01-16T20:44:56.306Z,4.70
2019-01-16T20:47:27.761Z,4.60
2019-01-16T20:50:04.516Z,4.60
2019-01-16T20:52:35.801Z,4.60
2019-01-16T20:55:23.525Z,4.60
2019-01-16T20:58:00.357Z,4.50
2019-01-16T21:00:48.171Z,4.60
2019-01-16T21:03:35.990Z,4.60
2019-01-16T21:06:18.991Z,4.60
2019-01-16T21:08:53.207Z,4.50
2019-01-16T21:11:24.431Z,4.50
2019-01-16T21:13:55.785Z,4.50
2019-01-16T21:16:36.075Z,4.40
2019-01-16T21:19:23.675Z,4.40
2019-01-16T21:22:11.398Z,4.40
2019-01-16T21:25:01.339Z,4.30
2019-01-16T21:27:35.738Z,4.30
2019-01-16T21:30:10.185Z,4.30
2019-01-16T21:32:41.401Z,4.30
2019-01-16T21:35:31.047Z,4.30
2019-01-16T21:38:04.894Z,4.20
2019-01-16T21:40:52.404Z,4.20
2019-01-16T21:43:40.190Z,4.20
2019-01-16T21:46:17.201Z,4.20
2019-01-16T21:48:48.468Z,4.20
2019-01-16T21:51:25.940Z,4.20
2019-01-16T21:53:57.169Z,4.20
2019-01-16T21:56:28.368Z,4.20
2019-01-16T21:59:05.440Z,4.20
2019-01-16T22:01:39.488Z,4.20
2019-01-16T22:04:11.109Z,4.20
2019-01-16T22:06:44.925Z,4.20
2019-01-16T22:09:16.176Z,4.20
2019-01-16T22:11:50.289Z,4.20
2019-01-16T22:14:30.849Z,4.30
2019-01-16T22:17:04.890Z,4.30
2019-01-16T22:19:41.830Z,4.30
2019-01-16T22:22:15.951Z,4.30
2019-01-16T22:24:47.262Z,4.30
2019-01-16T22:27:36.074Z,4.30
2019-01-16T22:30:31.789Z,4.30
2019-01-16T22:33:03.044Z,4.30
2019-01-16T22:35:34.270Z,4.30
2019-01-16T22:38:17.902Z,4.30
2019-01-16T22:40:54.753Z,4.30
2019-01-16T22:43:28.913Z,4.30
2019-01-16T22:46:11.963Z,4.30
2019-01-16T22:48:45.976Z,4.30
2019-01-16T22:51:25.842Z,4.30
2019-01-16T22:54:13.110Z,4.30
2019-01-16T22:56:56.077Z,4.40
2019-01-16T22:59:39.321Z,4.40
2019-01-16T23:02:22.855Z,4.30
2019-01-16T23:05:12.296Z,4.40
2019-01-16T23:07:46.148Z,4.40
2019-01-16T23:10:17.488Z,4.40
2019-01-16T23:12:51.598Z,4.40
2019-01-16T23:15:38.422Z,4.40
2019-01-16T23:18:18.493Z,4.40
2019-01-16T23:21:04.954Z,4.40
2019-01-16T23:23:51.449Z,4.40
2019-01-16T23:26:23.297Z,4.40
2019-01-16T23:28:54.526Z,4.40
2019-01-16T23:31:31.824Z,4.40
2019-01-16T23:34:12.050Z,4.40
2019-01-16T23:36:55.483Z,4.40
2019-01-16T23:39:29.548Z,4.40
2019-01-16T23:42:06.630Z,4.40
2019-01-16T23:44:54.605Z,4.30
2019-01-16T23:47:35.897Z,4.30
2019-01-16T23:50:12.973Z,4.30
2019-01-16T23:53:00.297Z,4.30
2019-01-16T23:55:47.924Z,4.30
2019-01-16T23:58:24.884Z,4.20
